createdAt,value
2022-11-24T00:02:04.941Z,101679.78
2022-11-24T00:07:08.602Z,101688.06
2022-11-24T00:12:12.883Z,101684.53
2022-11-24T00:17:18.731Z,101687.75
2022-11-24T00:22:22.282Z,101702.25
2022-11-24T00:27:25.822Z,101709.75
2022-11-24T00:32:31.618Z,101719.78
2022-11-24T00:37:34.421Z,101710.56
2022-11-24T00:42:38.010Z,101713.56
2022-11-24T00:47:43.176Z,101725.84
2022-11-24T00:52:46.759Z,101727.31
2022-11-24T00:57:50.282Z,101733.09
2022-11-24T01:02:55.533Z,101736.91
2022-11-24T01:07:59.082Z,101743.25
2022-11-24T01:13:02.736Z,101741.88
2022-11-24T01:18:08.338Z,101748.22
2022-11-24T01:23:11.907Z,101748.59
2022-11-24T01:28:15.551Z,101760.91
2022-11-24T01:33:20.742Z,101765.28
2022-11-24T01:38:24.326Z,101769.97
2022-11-24T01:43:27.908Z,101758.91
2022-11-24T01:48:37.820Z,101762.81
2022-11-24T01:53:44.659Z,101758.78
2022-11-24T01:58:49.682Z,101750.19
2022-11-24T02:03:55.022Z,101752.72
2022-11-24T02:09:03.287Z,101760.72
2022-11-24T02:14:08.942Z,101753.91
2022-11-24T02:19:21.850Z,101756.84
2022-11-24T02:24:33.262Z,101755.38
2022-11-24T02:29:39.164Z,101758.72
2022-11-24T02:34:42.702Z,101765.72
2022-11-24T02:39:46.252Z,101761.78
2022-11-24T02:44:55.745Z,101762.69
2022-11-24T02:49:59.280Z,101761.81
2022-11-24T02:55:02.827Z,101761.69
2022-11-24T03:00:09.457Z,101767.13
2022-11-24T03:05:13.494Z,101763.78
2022-11-24T03:10:17.492Z,101777.88
2022-11-24T03:15:22.726Z,101779.03
2022-11-24T03:20:26.383Z,101778.84
2022-11-24T03:25:29.931Z,101780.69
2022-11-24T03:30:35.091Z,101772.94
2022-11-24T03:35:38.646Z,101770.31
2022-11-24T03:40:42.368Z,101761.03
2022-11-24T03:45:48.957Z,101762.88
2022-11-24T03:50:56.447Z,101761.16
2022-11-24T03:56:02.747Z,101752.44
2022-11-24T04:01:07.940Z,101760.34
2022-11-24T04:06:11.897Z,101760.41
2022-11-24T04:11:15.524Z,101758.81
2022-11-24T04:16:21.431Z,101752.00
2022-11-24T04:21:25.025Z,101755.53
2022-11-24T04:26:28.807Z,101753.00
2022-11-24T04:31:34.075Z,101759.09
2022-11-24T04:36:37.697Z,101756.53
2022-11-24T04:41:41.269Z,101756.59
2022-11-24T04:46:46.544Z,101746.25
2022-11-24T04:51:50.382Z,101745.31
2022-11-24T04:56:54.093Z,101754.06
2022-11-24T05:01:59.498Z,101757.63
2022-11-24T05:07:03.095Z,101755.94
2022-11-24T05:12:07.058Z,101757.72
2022-11-24T05:17:12.278Z,101755.91
2022-11-24T05:22:15.877Z,101748.16
2022-11-24T05:27:19.512Z,101752.50
2022-11-24T05:32:24.963Z,101750.81
2022-11-24T05:37:29.723Z,101750.81
2022-11-24T05:42:33.279Z,101751.66
2022-11-24T05:47:39.456Z,101757.78
2022-11-24T05:52:43.207Z,101760.34
2022-11-24T05:57:47.642Z,101745.59
2022-11-24T06:02:53.861Z,101747.41
2022-11-24T06:07:56.932Z,101749.19
2022-11-24T06:13:00.537Z,101746.56
2022-11-24T06:18:05.882Z,101749.16
2022-11-24T06:23:09.441Z,101760.47
2022-11-24T06:28:13.006Z,101750.06
2022-11-24T06:33:18.194Z,101750.06
2022-11-24T06:38:24.405Z,101766.56
2022-11-24T06:43:27.610Z,101763.97
2022-11-24T06:48:33.816Z,101762.22
2022-11-24T06:53:38.605Z,101763.09
2022-11-24T06:58:42.785Z,101761.34
2022-11-24T07:03:48.404Z,101771.75
2022-11-24T07:08:52.767Z,101758.72
2022-11-24T07:14:00.124Z,101764.75
2022-11-24T07:19:05.769Z,101766.53
2022-11-24T07:24:10.359Z,101773.44
2022-11-24T07:29:13.921Z,101777.75
2022-11-24T07:34:19.152Z,101781.25
2022-11-24T07:39:22.696Z,101787.28
2022-11-24T07:44:26.263Z,101785.53
2022-11-24T07:49:31.478Z,101788.09
2022-11-24T07:54:35.217Z,101793.19
2022-11-24T07:59:39.010Z,101793.28
2022-11-24T08:04:44.190Z,101789.00
2022-11-24T08:09:47.748Z,101787.25
2022-11-24T08:14:51.598Z,101780.28
2022-11-24T08:19:56.805Z,101775.94
2022-11-24T08:25:00.392Z,101789.03
2022-11-24T08:30:04.015Z,101786.38
2022-11-24T08:35:14.025Z,101794.16
2022-11-24T08:40:18.580Z,101797.63
2022-11-24T08:45:23.845Z,101802.72
2022-11-24T08:50:30.782Z,101793.13
2022-11-24T08:55:34.324Z,101794.03
2022-11-24T09:00:37.945Z,101795.75
2022-11-24T09:05:51.781Z,101804.50
2022-11-24T09:11:00.687Z,101801.97
2022-11-24T09:16:04.970Z,101793.28
2022-11-24T09:21:11.470Z,101794.94
2022-11-24T09:26:16.302Z,101798.44
2022-11-24T09:31:19.884Z,101796.75
2022-11-24T09:36:25.561Z,101795.75
2022-11-24T09:41:49.535Z,101799.16
2022-11-24T09:47:02.754Z,101813.81
2022-11-24T09:52:13.684Z,101820.00
2022-11-24T09:57:20.066Z,101815.72
2022-11-24T10:02:22.897Z,101800.09
2022-11-24T10:07:33.976Z,101827.91
2022-11-24T10:12:55.131Z,101841.69
2022-11-24T10:18:33.500Z,101836.50
2022-11-24T10:24:06.305Z,101844.34
2022-11-24T10:29:21.053Z,101848.69
2022-11-24T10:34:29.638Z,101844.38
2022-11-24T10:39:40.316Z,101853.13
2022-11-24T10:44:44.447Z,101858.38
2022-11-24T10:49:56.330Z,101854.00
2022-11-24T10:55:02.778Z,101854.94
2022-11-24T11:00:25.679Z,101854.88
2022-11-24T11:05:39.803Z,101855.69
2022-11-24T11:10:46.360Z,101852.97
2022-11-24T11:15:50.060Z,101847.63
2022-11-24T11:20:55.455Z,101845.88
2022-11-24T11:26:37.312Z,101844.97
2022-11-24T11:31:41.393Z,101854.66
2022-11-24T11:36:47.174Z,101854.59
2022-11-24T11:42:01.252Z,101855.41
2022-11-24T11:47:15.024Z,101852.72
2022-11-24T11:52:58.078Z,101850.97
2022-11-24T11:58:19.098Z,101853.53
2022-11-24T12:03:49.347Z,101854.34
2022-11-24T12:09:19.691Z,101854.28
2022-11-24T12:14:42.185Z,101840.31
2022-11-24T12:20:04.146Z,101831.72
2022-11-24T12:25:23.834Z,101836.03
2022-11-24T12:30:38.743Z,101848.19
2022-11-24T12:35:45.360Z,101863.75
2022-11-24T12:46:45.513Z,101874.84
2022-11-24T12:51:55.503Z,101877.59
2022-11-24T12:57:07.731Z,101875.06
2022-11-24T13:02:26.079Z,101869.06
2022-11-24T13:07:43.590Z,101864.91
2022-11-24T13:12:57.488Z,101866.69
2022-11-24T13:18:10.490Z,101865.78
2022-11-24T13:23:25.378Z,101877.13
2022-11-24T13:29:08.968Z,101884.78
2022-11-24T13:35:03.091Z,101902.31
2022-11-24T13:40:45.872Z,101897.97
2022-11-24T13:45:58.158Z,101892.06
2022-11-24T13:51:25.021Z,101895.38
2022-11-24T13:56:29.467Z,101900.47
2022-11-24T14:01:35.317Z,101895.25
2022-11-24T14:06:43.172Z,101905.69
2022-11-24T14:11:57.482Z,101903.09
2022-11-24T14:17:17.870Z,101909.13
2022-11-24T14:22:25.354Z,101905.78
2022-11-24T14:27:32.168Z,101911.03
2022-11-24T14:32:35.757Z,101918.81
2022-11-24T14:37:40.955Z,101932.63
2022-11-24T14:42:51.056Z,101926.63
2022-11-24T14:47:54.639Z,101928.34
2022-11-24T14:53:00.594Z,101932.56
2022-11-24T14:58:22.044Z,101931.81
2022-11-24T15:03:25.620Z,101936.13
2022-11-24T15:08:38.109Z,101941.22
2022-11-24T15:13:52.038Z,101947.31
2022-11-24T15:19:00.267Z,101953.66
2022-11-24T15:24:16.598Z,101962.41
2022-11-24T15:29:20.204Z,101971.06
2022-11-24T15:34:23.756Z,101983.31
2022-11-24T15:39:28.967Z,101974.69
2022-11-24T15:44:32.783Z,101990.38
2022-11-24T15:49:36.524Z,101993.97
2022-11-24T15:54:41.754Z,101994.88
2022-11-24T15:59:45.415Z,102000.19
2022-11-24T16:04:49.084Z,101995.84
2022-11-24T16:09:54.405Z,102001.09
2022-11-24T16:14:57.972Z,102008.03
2022-11-24T16:20:01.529Z,102015.06
2022-11-24T16:25:07.474Z,102021.88
2022-11-24T16:30:13.604Z,102018.06
2022-11-24T16:35:17.348Z,102009.13
2022-11-24T16:40:22.600Z,102019.97
2022-11-24T16:45:26.256Z,102024.72
2022-11-24T16:50:29.877Z,102033.94
2022-11-24T16:55:35.094Z,102022.84
2022-11-24T17:00:38.668Z,102022.19
2022-11-24T17:05:42.239Z,102033.84
2022-11-24T17:10:47.474Z,102035.25
2022-11-24T17:15:54.139Z,102043.28
2022-11-24T17:21:00.284Z,102042.81
2022-11-24T17:26:11.861Z,102046.56
2022-11-24T17:31:20.579Z,102039.09
2022-11-24T17:36:27.653Z,102038.63
2022-11-24T17:41:33.658Z,102042.81
2022-11-24T17:46:36.488Z,102040.56
2022-11-24T17:51:40.043Z,102041.94
2022-11-24T17:56:45.602Z,102036.09
2022-11-24T18:01:49.136Z,102038.81
2022-11-24T18:06:52.688Z,102038.28
2022-11-24T18:11:57.891Z,102038.59
2022-11-24T18:17:01.705Z,102037.28
2022-11-24T18:22:05.359Z,102034.94
2022-11-24T18:27:10.564Z,102024.25
2022-11-24T18:32:14.159Z,102016.75
2022-11-24T18:37:17.887Z,102012.00
2022-11-24T18:42:23.110Z,102022.94
2022-11-24T18:47:26.665Z,102014.72
2022-11-24T18:52:30.254Z,102005.53
2022-11-24T18:57:35.436Z,101999.84
2022-11-24T19:02:39.045Z,102005.09
2022-11-24T19:07:42.653Z,102000.72
2022-11-24T19:12:47.876Z,102011.22
2022-11-24T19:17:51.427Z,101995.09
2022-11-24T19:22:56.635Z,101989.88
2022-11-24T19:28:01.905Z,101988.84
2022-11-24T19:33:07.293Z,101983.47
2022-11-24T19:38:14.782Z,101989.81
2022-11-24T19:43:20.408Z,101981.44
2022-11-24T19:48:23.940Z,101965.53
2022-11-24T19:53:27.535Z,101953.03
2022-11-24T19:58:33.287Z,101943.03
2022-11-24T20:03:37.164Z,101932.50
2022-11-24T20:08:42.344Z,101917.31
2022-11-24T20:13:48.350Z,101909.50
2022-11-24T20:18:52.090Z,101908.28
2022-11-24T20:23:59.840Z,101907.13
2022-11-24T20:29:05.725Z,101902.34
2022-11-24T20:34:10.324Z,101899.19
2022-11-24T20:39:16.635Z,101888.72
2022-11-24T20:44:22.429Z,101888.94
2022-11-24T20:49:26.594Z,101897.78
2022-11-24T20:54:30.223Z,101898.59
2022-11-24T20:59:35.539Z,101900.63
2022-11-24T21:04:39.202Z,101888.81
2022-11-24T21:09:42.773Z,101903.56
2022-11-24T21:14:48.891Z,101891.53
2022-11-24T21:19:55.743Z,101886.47
2022-11-24T21:25:01.741Z,101884.00
2022-11-24T21:30:08.122Z,101877.13
2022-11-24T21:35:11.672Z,101869.84
2022-11-24T21:40:15.480Z,101888.63
2022-11-24T21:45:20.783Z,101890.91
2022-11-24T21:50:24.385Z,101890.75
2022-11-24T21:55:28.015Z,101892.53
2022-11-24T22:00:33.197Z,101896.06
2022-11-24T22:05:36.785Z,101903.38
2022-11-24T22:10:40.357Z,101895.69
2022-11-24T22:15:45.645Z,101895.94
2022-11-24T22:20:55.667Z,101896.94
2022-11-24T22:26:04.365Z,101890.34
2022-11-24T22:31:11.140Z,101873.91
2022-11-24T22:36:16.175Z,101896.94
2022-11-24T22:41:19.809Z,101893.44
2022-11-24T22:46:26.618Z,101905.88
2022-11-24T22:51:31.937Z,101902.09
2022-11-24T22:56:35.630Z,101904.94
2022-11-24T23:01:40.818Z,101911.53
2022-11-24T23:06:44.420Z,101908.06
2022-11-24T23:11:48.012Z,101908.41
2022-11-24T23:16:54.947Z,101898.44
2022-11-24T23:21:58.468Z,101906.25
2022-11-24T23:27:01.999Z,101910.81
2022-11-24T23:32:07.611Z,101909.44
2022-11-24T23:37:10.419Z,101907.28
2022-11-24T23:42:14.020Z,101911.25
2022-11-24T23:47:19.215Z,101901.03
2022-11-24T23:52:22.791Z,101904.25
2022-11-24T23:57:26.376Z,101911.00
